createdAt,value
2017-12-04T00:00:41.502Z,30.40
2017-12-04T00:01:41.437Z,30.40
2017-12-04T00:02:41.378Z,30.00
2017-12-04T00:03:41.308Z,28.70
2017-12-04T00:04:41.250Z,30.00
2017-12-04T00:05:41.189Z,29.30
2017-12-04T00:06:41.120Z,29.40
2017-12-04T00:07:41.058Z,28.30
2017-12-04T00:08:40.987Z,29.50
2017-12-04T00:09:40.925Z,28.90
2017-12-04T00:10:40.863Z,28.90
2017-12-04T00:11:40.794Z,29.60
2017-12-04T00:12:40.740Z,30.10
2017-12-04T00:13:40.670Z,30.50
2017-12-04T00:14:40.608Z,27.80
2017-12-04T00:15:40.538Z,28.50
2017-12-04T00:16:40.483Z,28.50
2017-12-04T00:17:40.408Z,28.80
2017-12-04T00:18:40.345Z,28.90
2017-12-04T00:19:40.289Z,28.60
2017-12-04T00:20:40.218Z,28.50
2017-12-04T00:21:40.157Z,27.00
2017-12-04T00:22:40.093Z,29.20
2017-12-04T00:23:40.029Z,27.30
2017-12-04T00:24:39.967Z,27.90
2017-12-04T00:25:39.899Z,27.20
2017-12-04T00:26:39.837Z,27.80
2017-12-04T00:27:39.777Z,28.40
2017-12-04T00:28:39.701Z,28.00
2017-12-04T00:29:39.651Z,27.70
2017-12-04T00:30:39.574Z,27.20
2017-12-04T00:31:39.516Z,28.60
2017-12-04T00:32:39.450Z,28.60
2017-12-04T00:33:39.383Z,28.80
2017-12-04T00:34:39.324Z,29.10
2017-12-04T00:35:39.259Z,28.80
2017-12-04T00:36:39.194Z,28.20
2017-12-04T00:37:39.130Z,28.40
2017-12-04T00:38:39.072Z,28.90
2017-12-04T00:39:38.996Z,29.50
2017-12-04T00:40:38.932Z,29.60
2017-12-04T00:41:38.866Z,30.00
2017-12-04T00:42:38.809Z,29.50
2017-12-04T00:43:38.737Z,30.00
2017-12-04T00:44:38.681Z,29.70
2017-12-04T00:45:38.610Z,31.00
2017-12-04T00:46:38.545Z,31.60
2017-12-04T00:47:38.480Z,31.90
2017-12-04T00:48:38.416Z,31.00
2017-12-04T00:49:38.353Z,31.20
2017-12-04T00:50:38.287Z,31.00
2017-12-04T00:51:38.229Z,29.80
2017-12-04T00:52:38.160Z,32.40
2017-12-04T00:53:38.097Z,32.40
2017-12-04T00:54:38.031Z,31.20
2017-12-04T00:55:37.972Z,31.60
2017-12-04T00:56:37.908Z,32.80
2017-12-04T00:57:37.836Z,30.80
2017-12-04T00:58:37.774Z,31.30
2017-12-04T00:59:37.714Z,30.90
2017-12-04T01:00:37.647Z,31.00
2017-12-04T01:01:37.583Z,31.70
2017-12-04T01:02:37.517Z,30.60
2017-12-04T01:03:37.452Z,31.50
2017-12-04T01:04:37.390Z,31.10
2017-12-04T01:05:37.323Z,32.10
2017-12-04T01:06:37.256Z,31.80
2017-12-04T01:07:37.200Z,32.20
2017-12-04T01:08:37.135Z,32.10
2017-12-04T01:09:37.066Z,32.30
2017-12-04T01:10:37.011Z,32.00
2017-12-04T01:11:36.939Z,32.30
2017-12-04T01:12:36.869Z,31.80
2017-12-04T01:13:36.808Z,32.40
2017-12-04T01:14:36.751Z,30.90
2017-12-04T01:15:36.683Z,31.90
2017-12-04T01:16:36.617Z,30.20
2017-12-04T01:17:36.560Z,30.50
2017-12-04T01:18:36.481Z,30.00
2017-12-04T01:19:36.418Z,29.00
2017-12-04T01:20:36.358Z,30.10
2017-12-04T01:21:36.288Z,29.20
2017-12-04T01:22:36.235Z,30.30
2017-12-04T01:23:36.173Z,29.00
2017-12-04T01:24:36.108Z,30.50
2017-12-04T01:25:36.034Z,30.50
2017-12-04T01:26:35.968Z,30.90
2017-12-04T01:27:35.929Z,31.60
2017-12-04T01:28:35.839Z,31.40
2017-12-04T01:29:35.776Z,30.70
2017-12-04T01:30:35.719Z,31.00
2017-12-04T01:31:35.659Z,29.60
2017-12-04T01:32:35.586Z,29.50
2017-12-04T01:33:35.514Z,28.70
2017-12-04T01:34:35.452Z,29.30
2017-12-04T01:35:35.388Z,29.60
2017-12-04T01:36:35.325Z,28.70
2017-12-04T01:37:35.258Z,28.00
2017-12-04T01:38:35.196Z,27.60
2017-12-04T01:39:35.134Z,27.80
2017-12-04T01:40:35.072Z,28.20
2017-12-04T01:41:35.005Z,26.80
2017-12-04T01:42:34.927Z,27.30
2017-12-04T01:43:34.883Z,26.50
2017-12-04T01:44:34.809Z,27.10
2017-12-04T01:45:34.751Z,25.50
2017-12-04T01:46:34.683Z,24.70
2017-12-04T01:47:34.615Z,25.60
2017-12-04T01:48:34.555Z,26.70
2017-12-04T01:49:34.551Z,24.70
2017-12-04T01:50:34.425Z,25.10
2017-12-04T01:51:34.357Z,25.10
2017-12-04T01:52:34.298Z,25.90
2017-12-04T01:53:34.238Z,26.20
2017-12-04T01:54:34.167Z,25.00
2017-12-04T01:55:34.101Z,25.10
2017-12-04T01:56:34.037Z,24.50
2017-12-04T01:57:33.970Z,24.60
2017-12-04T01:58:33.917Z,24.00
2017-12-04T01:59:33.864Z,24.20
2017-12-04T02:00:33.781Z,24.10
2017-12-04T02:01:33.716Z,23.80
2017-12-04T02:02:33.653Z,24.30
2017-12-04T02:03:33.589Z,23.90
2017-12-04T02:04:33.522Z,23.90
2017-12-04T02:05:33.463Z,23.80
2017-12-04T02:06:33.419Z,24.60
2017-12-04T02:07:33.331Z,23.50
2017-12-04T02:08:33.270Z,23.40
2017-12-04T02:09:33.209Z,23.50
2017-12-04T02:10:33.138Z,22.70
2017-12-04T02:11:33.063Z,23.10
2017-12-04T02:12:33.008Z,23.40
2017-12-04T02:13:32.948Z,23.70
2017-12-04T02:14:32.882Z,23.50
2017-12-04T02:15:32.820Z,24.70
2017-12-04T02:16:32.756Z,22.20
2017-12-04T02:17:32.679Z,22.80
2017-12-04T02:18:32.628Z,21.20
2017-12-04T02:19:32.551Z,22.70
2017-12-04T02:20:32.499Z,21.90
2017-12-04T02:21:32.429Z,22.40
2017-12-04T02:22:32.369Z,23.20
2017-12-04T02:23:32.305Z,23.30
2017-12-04T02:24:32.250Z,22.00
2017-12-04T02:25:32.174Z,22.80
2017-12-04T02:26:32.119Z,22.10
2017-12-04T02:27:32.043Z,22.40
2017-12-04T02:28:32.008Z,22.90
2017-12-04T02:29:31.923Z,22.30
2017-12-04T02:30:31.854Z,21.50
2017-12-04T02:31:31.796Z,22.10
2017-12-04T02:32:31.740Z,22.30
2017-12-04T02:33:31.654Z,22.30
2017-12-04T02:34:31.598Z,22.50
2017-12-04T02:35:31.532Z,21.50
2017-12-04T02:36:31.469Z,21.50
2017-12-04T02:37:31.406Z,21.10
2017-12-04T02:38:31.339Z,21.70
2017-12-04T02:39:31.278Z,22.10
2017-12-04T02:40:31.209Z,21.10
2017-12-04T02:41:31.145Z,21.50
2017-12-04T02:42:31.080Z,22.70
2017-12-04T02:43:31.016Z,22.00
2017-12-04T02:44:30.955Z,21.20
2017-12-04T02:45:30.894Z,21.00
2017-12-04T02:46:30.826Z,20.60
2017-12-04T02:47:30.766Z,21.00
2017-12-04T02:48:30.699Z,21.50
2017-12-04T02:49:30.642Z,20.80
2017-12-04T02:50:30.570Z,20.70
2017-12-04T02:51:30.502Z,19.50
2017-12-04T02:52:30.440Z,19.00
2017-12-04T02:53:30.379Z,20.70
2017-12-04T02:54:30.314Z,19.80
2017-12-04T02:55:30.252Z,19.80
2017-12-04T02:56:30.184Z,20.10
2017-12-04T02:57:30.126Z,20.80
2017-12-04T02:58:30.058Z,20.60
2017-12-04T02:59:29.996Z,20.10
2017-12-04T03:00:29.928Z,19.00
2017-12-04T03:01:29.862Z,19.50
2017-12-04T03:02:29.828Z,19.70
2017-12-04T03:03:29.734Z,19.50
2017-12-04T03:04:29.673Z,19.80
2017-12-04T03:05:29.607Z,19.10
2017-12-04T03:06:29.547Z,19.30
2017-12-04T03:07:29.480Z,19.70
2017-12-04T03:08:29.415Z,18.70
2017-12-04T03:09:29.352Z,20.00
2017-12-04T03:10:29.285Z,19.20
2017-12-04T03:11:29.224Z,18.80
2017-12-04T03:12:29.157Z,18.20
2017-12-04T03:13:29.095Z,19.30
2017-12-04T03:14:29.030Z,19.20
2017-12-04T03:15:28.963Z,18.90
2017-12-04T03:16:28.903Z,18.30
2017-12-04T03:17:28.836Z,18.60
2017-12-04T03:18:28.772Z,19.20
2017-12-04T03:19:28.708Z,17.40
2017-12-04T03:20:28.645Z,17.40
2017-12-04T03:21:28.585Z,18.30
2017-12-04T03:22:28.517Z,17.70
2017-12-04T03:23:28.465Z,19.20
2017-12-04T03:24:28.401Z,18.70
2017-12-04T03:25:28.328Z,18.10
2017-12-04T03:26:28.259Z,19.50
2017-12-04T03:27:28.221Z,19.30
2017-12-04T03:28:28.125Z,19.00
2017-12-04T03:29:28.077Z,18.50
2017-12-04T03:30:28.024Z,18.50
2017-12-04T03:31:27.953Z,17.90
2017-12-04T03:32:27.913Z,18.60
2017-12-04T03:33:27.839Z,18.60
2017-12-04T03:34:27.742Z,19.20
2017-12-04T03:35:27.699Z,18.90
2017-12-04T03:36:27.668Z,18.10
2017-12-04T03:37:27.564Z,19.40
2017-12-04T03:38:27.666Z,18.20
2017-12-04T03:39:27.432Z,19.10
2017-12-04T03:40:27.395Z,18.30
2017-12-04T03:41:27.299Z,19.30
2017-12-04T03:42:27.249Z,18.90
2017-12-04T03:43:27.180Z,18.50
2017-12-04T03:44:27.119Z,18.60
2017-12-04T03:45:27.043Z,19.30
2017-12-04T03:46:26.983Z,19.00
2017-12-04T03:47:26.931Z,19.00
2017-12-04T03:48:26.846Z,19.30
2017-12-04T03:49:26.794Z,18.10
2017-12-04T03:50:26.752Z,18.60
2017-12-04T03:51:26.673Z,19.80
2017-12-04T03:52:26.600Z,18.50
2017-12-04T03:53:26.551Z,19.40
2017-12-04T03:54:26.461Z,19.00
2017-12-04T03:55:26.404Z,19.50
2017-12-04T03:56:26.343Z,19.80
2017-12-04T03:57:26.288Z,19.40
2017-12-04T03:58:26.211Z,18.70
2017-12-04T03:59:26.149Z,18.40
2017-12-04T04:00:26.134Z,19.50
2017-12-04T04:01:26.018Z,19.80
2017-12-04T04:02:25.959Z,19.40
2017-12-04T04:03:25.898Z,19.50
2017-12-04T04:04:25.835Z,19.00
2017-12-04T04:05:25.765Z,17.90
2017-12-04T04:06:25.701Z,18.30
2017-12-04T04:07:25.643Z,19.20
2017-12-04T04:08:25.577Z,18.60
2017-12-04T04:09:25.522Z,18.60
2017-12-04T04:10:25.451Z,18.20
2017-12-04T04:11:25.471Z,19.40
2017-12-04T04:12:25.320Z,19.20
2017-12-04T04:13:25.255Z,18.70
2017-12-04T04:14:25.187Z,18.80
2017-12-04T04:15:25.148Z,18.70
2017-12-04T04:16:25.074Z,18.60
2017-12-04T04:17:25.002Z,19.30
2017-12-04T04:18:24.945Z,18.10
2017-12-04T04:19:24.877Z,18.40
2017-12-04T04:20:24.813Z,18.10
2017-12-04T04:21:24.763Z,18.50
2017-12-04T04:22:24.693Z,19.00
2017-12-04T04:23:24.616Z,18.10
2017-12-04T04:24:24.560Z,18.60
2017-12-04T04:25:24.494Z,18.30
2017-12-04T04:26:24.439Z,18.50
2017-12-04T04:27:24.363Z,18.40
2017-12-04T04:28:24.302Z,18.00
2017-12-04T04:29:24.242Z,17.70
2017-12-04T04:30:24.168Z,18.10
2017-12-04T04:31:24.108Z,16.60
2017-12-04T04:32:24.041Z,17.90
2017-12-04T04:33:23.977Z,17.30
2017-12-04T04:34:23.938Z,17.20
2017-12-04T04:35:23.865Z,18.70
2017-12-04T04:36:23.813Z,17.70
2017-12-04T04:37:23.747Z,18.00
2017-12-04T04:38:23.657Z,18.20
2017-12-04T04:39:23.599Z,18.80
2017-12-04T04:40:23.534Z,19.50
2017-12-04T04:41:23.489Z,18.50
2017-12-04T04:42:23.408Z,18.60
2017-12-04T04:43:23.389Z,17.70
2017-12-04T04:44:23.274Z,18.00
2017-12-04T04:45:23.213Z,17.60
2017-12-04T04:46:23.156Z,18.40
2017-12-04T04:47:23.100Z,17.50
2017-12-04T04:48:23.041Z,18.80
2017-12-04T04:49:22.968Z,18.20
2017-12-04T04:50:22.893Z,18.30
2017-12-04T04:51:22.832Z,17.60
2017-12-04T04:52:22.773Z,17.10
2017-12-04T04:53:22.703Z,17.20
2017-12-04T04:54:22.639Z,16.50
2017-12-04T04:55:22.571Z,16.90
2017-12-04T04:56:22.520Z,17.40
2017-12-04T04:57:22.487Z,17.30
2017-12-04T04:58:22.415Z,16.70
2017-12-04T04:59:22.330Z,17.40
2017-12-04T05:00:22.284Z,16.50
2017-12-04T05:01:22.194Z,17.10
2017-12-04T05:02:22.143Z,16.70
2017-12-04T05:03:22.067Z,15.60
2017-12-04T05:04:21.995Z,17.00
2017-12-04T05:05:21.956Z,17.00
2017-12-04T05:06:21.874Z,16.90
2017-12-04T05:07:21.823Z,17.20
2017-12-04T05:08:21.762Z,17.60
2017-12-04T05:09:21.702Z,17.10
2017-12-04T05:10:21.639Z,17.70
2017-12-04T05:11:21.548Z,17.90
2017-12-04T05:12:21.496Z,17.70
2017-12-04T05:13:21.427Z,16.60
2017-12-04T05:14:21.370Z,17.10
2017-12-04T05:15:21.307Z,15.60
2017-12-04T05:16:21.244Z,17.40
2017-12-04T05:17:21.179Z,17.50
2017-12-04T05:18:21.114Z,16.60
2017-12-04T05:19:21.048Z,16.90
2017-12-04T05:20:20.989Z,16.80
2017-12-04T05:21:20.928Z,16.70
2017-12-04T05:22:20.860Z,16.70
2017-12-04T05:23:20.797Z,16.70
2017-12-04T05:24:20.733Z,16.60
2017-12-04T05:25:20.663Z,17.70
2017-12-04T05:26:20.606Z,17.50
2017-12-04T05:27:20.542Z,17.10
2017-12-04T05:28:20.478Z,17.10
2017-12-04T05:29:20.406Z,17.70
2017-12-04T05:30:20.343Z,16.60
2017-12-04T05:31:20.281Z,17.70
2017-12-04T05:32:20.222Z,17.30
2017-12-04T05:33:20.160Z,16.30
2017-12-04T05:34:20.092Z,16.50
2017-12-04T05:35:20.032Z,17.20
2017-12-04T05:36:19.966Z,15.60
2017-12-04T05:37:19.905Z,15.90
2017-12-04T05:38:19.833Z,16.20
2017-12-04T05:39:19.773Z,16.70
2017-12-04T05:40:19.707Z,16.00
2017-12-04T05:41:19.648Z,16.40
2017-12-04T05:42:19.590Z,15.90
2017-12-04T05:43:19.547Z,16.00
2017-12-04T05:44:19.450Z,16.50
2017-12-04T05:45:19.392Z,16.30
2017-12-04T05:46:19.329Z,16.30
2017-12-04T05:47:19.259Z,16.50
2017-12-04T05:48:19.202Z,15.60
2017-12-04T05:49:19.137Z,16.50
2017-12-04T05:50:19.071Z,15.70
2017-12-04T05:51:19.004Z,15.90
2017-12-04T05:52:18.941Z,15.70
2017-12-04T05:53:18.883Z,15.90
2017-12-04T05:54:18.811Z,16.60
2017-12-04T05:55:18.754Z,15.90
2017-12-04T05:56:18.696Z,16.60
2017-12-04T05:57:18.622Z,16.00
2017-12-04T05:58:18.558Z,15.80
2017-12-04T05:59:18.492Z,15.70
2017-12-04T06:00:18.436Z,15.40
2017-12-04T06:01:18.366Z,15.40
2017-12-04T06:02:18.307Z,16.00
2017-12-04T06:03:18.238Z,15.50
2017-12-04T06:04:18.174Z,16.70
2017-12-04T06:05:18.119Z,15.80
2017-12-04T06:06:18.052Z,15.90
2017-12-04T06:07:17.985Z,15.40
2017-12-04T06:08:17.924Z,16.20
2017-12-04T06:09:17.855Z,15.70
2017-12-04T06:10:17.791Z,15.60
2017-12-04T06:11:17.734Z,16.30
2017-12-04T06:12:17.662Z,16.10
2017-12-04T06:13:17.604Z,15.50
2017-12-04T06:14:17.535Z,15.50
2017-12-04T06:15:17.479Z,15.20
2017-12-04T06:16:17.417Z,14.10
2017-12-04T06:17:17.350Z,15.00
2017-12-04T06:18:17.293Z,15.30
2017-12-04T06:19:17.216Z,14.90
2017-12-04T06:20:17.155Z,15.30
2017-12-04T06:21:17.095Z,14.90
2017-12-04T06:22:17.031Z,15.20
2017-12-04T06:23:16.968Z,15.90
2017-12-04T06:24:16.904Z,15.50
2017-12-04T06:25:16.840Z,15.10
2017-12-04T06:26:16.770Z,14.90
2017-12-04T06:27:16.712Z,15.60
2017-12-04T06:28:16.648Z,15.90
2017-12-04T06:29:16.578Z,16.10
2017-12-04T06:30:16.523Z,15.90
2017-12-04T06:31:16.456Z,15.40
2017-12-04T06:32:16.386Z,15.40
2017-12-04T06:33:16.322Z,15.40
2017-12-04T06:34:16.260Z,15.00
2017-12-04T06:35:16.201Z,14.60
2017-12-04T06:36:16.136Z,14.30
2017-12-04T06:37:16.121Z,14.40
2017-12-04T06:38:16.023Z,14.00
2017-12-04T06:39:15.940Z,14.80
2017-12-04T06:40:15.882Z,14.00
2017-12-04T06:41:15.817Z,15.10
2017-12-04T06:42:15.752Z,15.00
2017-12-04T06:43:15.686Z,14.70
2017-12-04T06:44:15.620Z,14.80
2017-12-04T06:45:15.561Z,14.90
2017-12-04T06:46:15.499Z,15.00
2017-12-04T06:47:15.434Z,15.10
2017-12-04T06:48:15.364Z,15.10
2017-12-04T06:49:15.307Z,15.80
2017-12-04T06:50:15.245Z,14.80
2017-12-04T06:51:15.178Z,14.40
2017-12-04T06:52:15.117Z,14.30
2017-12-04T06:53:15.046Z,14.60
2017-12-04T06:54:14.989Z,15.20
2017-12-04T06:55:14.920Z,14.90
2017-12-04T06:56:14.855Z,15.80
2017-12-04T06:57:14.828Z,15.00
2017-12-04T06:58:14.727Z,15.10
2017-12-04T06:59:14.669Z,16.00
2017-12-04T07:00:14.600Z,15.20
2017-12-04T07:01:14.536Z,14.30
2017-12-04T07:02:14.487Z,14.20
2017-12-04T07:03:14.413Z,14.40
2017-12-04T07:04:14.344Z,14.00
2017-12-04T07:05:14.286Z,14.20
2017-12-04T07:06:14.216Z,13.40
2017-12-04T07:07:14.153Z,14.20
2017-12-04T07:08:14.096Z,13.70
2017-12-04T07:09:14.026Z,14.20
2017-12-04T07:10:13.970Z,14.80
2017-12-04T07:11:13.901Z,14.50
2017-12-04T07:12:13.836Z,14.50
2017-12-04T07:13:13.779Z,15.10
2017-12-04T07:14:13.707Z,14.20
2017-12-04T07:15:13.655Z,14.00
2017-12-04T07:16:13.610Z,14.70
2017-12-04T07:17:13.524Z,14.70
2017-12-04T07:18:13.476Z,13.60
2017-12-04T07:19:13.397Z,15.10
2017-12-04T07:20:13.328Z,14.90
2017-12-04T07:21:13.267Z,14.10
2017-12-04T07:22:13.202Z,13.40
2017-12-04T07:23:13.139Z,14.20
2017-12-04T07:24:13.078Z,13.60
2017-12-04T07:25:13.014Z,14.30
2017-12-04T07:26:12.944Z,14.30
2017-12-04T07:27:12.888Z,14.70
2017-12-04T07:28:12.824Z,14.30
2017-12-04T07:29:12.760Z,13.80
2017-12-04T07:30:12.696Z,13.80
2017-12-04T07:31:12.633Z,13.80
2017-12-04T07:32:12.566Z,14.20
2017-12-04T07:33:12.506Z,13.70
2017-12-04T07:34:12.444Z,13.20
2017-12-04T07:35:12.373Z,14.40
2017-12-04T07:36:12.317Z,13.80
2017-12-04T07:37:12.246Z,12.80
2017-12-04T07:38:12.188Z,13.70
2017-12-04T07:39:12.123Z,13.40
2017-12-04T07:40:12.056Z,14.40
2017-12-04T07:41:11.992Z,13.60
2017-12-04T07:42:11.925Z,14.00
2017-12-04T07:43:11.865Z,13.90
2017-12-04T07:44:11.801Z,14.00
2017-12-04T07:45:11.737Z,13.70
2017-12-04T07:46:11.681Z,13.80
2017-12-04T07:47:11.614Z,13.80
2017-12-04T07:48:11.554Z,14.10
2017-12-04T07:49:11.483Z,14.30
2017-12-04T07:50:11.427Z,13.80
2017-12-04T07:51:11.359Z,13.10
2017-12-04T07:52:11.309Z,14.50
2017-12-04T07:53:11.235Z,13.40
2017-12-04T07:54:11.168Z,14.30
2017-12-04T07:55:11.103Z,14.80
2017-12-04T07:56:11.043Z,13.90
2017-12-04T07:57:10.983Z,13.30
2017-12-04T07:58:10.915Z,13.50
2017-12-04T07:59:10.852Z,13.90
2017-12-04T08:00:10.798Z,14.00
2017-12-04T08:01:10.731Z,14.30
2017-12-04T08:02:10.668Z,13.40
2017-12-04T08:03:10.789Z,13.10
2017-12-04T08:04:10.541Z,13.70
2017-12-04T08:05:10.478Z,14.10
2017-12-04T08:06:10.409Z,13.20
2017-12-04T08:07:10.366Z,13.60
2017-12-04T08:08:10.283Z,13.10
2017-12-04T08:09:10.225Z,14.10
2017-12-04T08:10:10.162Z,14.30
2017-12-04T08:11:10.097Z,12.90
2017-12-04T08:12:10.033Z,13.40
2017-12-04T08:13:09.971Z,14.30
2017-12-04T08:14:09.903Z,13.50
2017-12-04T08:15:09.841Z,13.40
2017-12-04T08:16:09.778Z,13.00
2017-12-04T08:17:09.714Z,13.40
2017-12-04T08:18:09.651Z,13.70
2017-12-04T08:19:09.590Z,13.30
2017-12-04T08:20:09.527Z,13.20
2017-12-04T08:21:09.463Z,13.90
2017-12-04T08:22:09.398Z,13.20
2017-12-04T08:23:09.340Z,13.20
2017-12-04T08:24:09.277Z,14.30
2017-12-04T08:25:09.222Z,13.60
2017-12-04T08:26:09.154Z,13.80
2017-12-04T08:27:09.093Z,14.40
2017-12-04T08:28:09.030Z,13.70
2017-12-04T08:29:08.988Z,14.50
2017-12-04T08:30:08.906Z,14.40
2017-12-04T08:31:08.833Z,14.40
2017-12-04T08:32:08.772Z,13.20
2017-12-04T08:33:08.705Z,13.80
2017-12-04T08:34:08.651Z,13.70
2017-12-04T08:35:08.587Z,13.40
2017-12-04T08:36:08.517Z,14.10
2017-12-04T08:37:08.460Z,13.50
2017-12-04T08:38:08.398Z,14.50
2017-12-04T08:39:08.338Z,14.70
2017-12-04T08:40:08.278Z,14.80
2017-12-04T08:41:08.205Z,14.10
2017-12-04T08:42:08.139Z,14.00
2017-12-04T08:43:08.085Z,13.80
2017-12-04T08:44:08.019Z,14.30
2017-12-04T08:45:07.959Z,14.80
2017-12-04T08:46:07.889Z,15.10
2017-12-04T08:47:07.826Z,14.60
2017-12-04T08:48:07.763Z,14.50
2017-12-04T08:49:07.695Z,15.20
2017-12-04T08:50:07.634Z,14.90
2017-12-04T08:51:07.573Z,15.20
2017-12-04T08:52:07.514Z,15.20
2017-12-04T08:53:07.448Z,14.60
2017-12-04T08:54:07.383Z,15.40
2017-12-04T08:55:07.328Z,15.60
2017-12-04T08:56:07.259Z,15.10
2017-12-04T08:57:07.193Z,15.00
2017-12-04T08:58:07.134Z,15.20
2017-12-04T08:59:07.080Z,15.00
2017-12-04T09:00:07.016Z,15.10
2017-12-04T09:01:07.221Z,14.90
2017-12-04T09:02:06.881Z,16.00
2017-12-04T09:03:06.822Z,15.30
2017-12-04T09:04:06.762Z,15.30
2017-12-04T09:05:06.691Z,15.10
2017-12-04T09:06:06.636Z,16.40
2017-12-04T09:07:06.568Z,15.10
2017-12-04T09:08:06.507Z,15.30
2017-12-04T09:09:06.523Z,15.30
2017-12-04T09:10:06.421Z,15.90
2017-12-04T09:11:06.314Z,15.70
2017-12-04T09:12:06.257Z,15.60
2017-12-04T09:13:06.193Z,15.90
2017-12-04T09:14:06.129Z,15.90
2017-12-04T09:15:06.062Z,15.90
2017-12-04T09:16:06.012Z,16.10
2017-12-04T09:17:05.945Z,14.80
2017-12-04T09:18:05.880Z,15.00
2017-12-04T09:19:05.820Z,15.70
2017-12-04T09:20:05.747Z,16.20
2017-12-04T09:21:05.687Z,15.60
2017-12-04T09:22:05.650Z,15.50
2017-12-04T09:23:05.575Z,15.50
2017-12-04T09:24:05.514Z,14.80
2017-12-04T09:25:05.434Z,15.40
2017-12-04T09:26:05.375Z,15.60
2017-12-04T09:27:05.311Z,15.20
2017-12-04T09:28:05.253Z,16.10
2017-12-04T09:29:05.185Z,15.10
2017-12-04T09:30:05.125Z,15.90
2017-12-04T09:31:05.149Z,15.40
2017-12-04T09:32:05.010Z,15.70
2017-12-04T09:33:04.943Z,16.70
2017-12-04T09:34:04.875Z,16.10
2017-12-04T09:35:04.817Z,16.40
2017-12-04T09:36:04.747Z,15.20
2017-12-04T09:37:04.688Z,15.20
2017-12-04T09:38:04.615Z,15.50
2017-12-04T09:39:04.567Z,16.10
2017-12-04T09:40:04.500Z,15.90
2017-12-04T09:41:04.437Z,15.50
2017-12-04T09:42:04.370Z,15.70
2017-12-04T09:43:04.315Z,15.70
2017-12-04T09:44:04.251Z,16.60
2017-12-04T09:45:04.186Z,15.40
2017-12-04T09:46:04.121Z,15.50
2017-12-04T09:47:04.060Z,16.40
2017-12-04T09:48:04.017Z,16.30
2017-12-04T09:49:03.935Z,16.20
2017-12-04T09:50:03.873Z,16.00
2017-12-04T09:51:03.809Z,16.80
2017-12-04T09:52:03.740Z,15.50
2017-12-04T09:53:03.682Z,16.00
2017-12-04T09:54:03.623Z,15.50
2017-12-04T09:55:03.557Z,17.00
2017-12-04T09:56:03.502Z,16.60
2017-12-04T09:57:03.440Z,15.90
2017-12-04T09:58:03.383Z,16.30
2017-12-04T09:59:03.314Z,15.80
2017-12-04T10:00:03.252Z,16.30
2017-12-04T10:01:03.184Z,17.00
2017-12-04T10:02:03.120Z,16.90
2017-12-04T10:03:03.058Z,15.70
2017-12-04T10:04:02.998Z,17.00
2017-12-04T10:05:02.984Z,16.10
2017-12-04T10:06:02.905Z,15.90
2017-12-04T10:07:02.813Z,16.10
2017-12-04T10:08:02.749Z,16.80
2017-12-04T10:09:02.704Z,16.30
2017-12-04T10:10:02.624Z,16.20
2017-12-04T10:11:02.558Z,15.80
2017-12-04T10:12:02.491Z,16.60
2017-12-04T10:13:02.433Z,16.60
2017-12-04T10:14:02.366Z,16.30
2017-12-04T10:15:02.303Z,16.40
2017-12-04T10:16:02.243Z,16.30
2017-12-04T10:17:02.175Z,15.80
2017-12-04T10:18:02.142Z,17.10
2017-12-04T10:19:02.068Z,17.10
2017-12-04T10:20:01.990Z,15.60
2017-12-04T10:21:01.929Z,16.40
2017-12-04T10:22:01.864Z,16.70
2017-12-04T10:23:01.805Z,16.40
2017-12-04T10:24:01.742Z,17.10
2017-12-04T10:25:01.742Z,16.90
2017-12-04T10:26:01.619Z,17.80
2017-12-04T10:27:01.551Z,17.20
2017-12-04T10:28:01.489Z,16.80
2017-12-04T10:29:01.466Z,16.80
2017-12-04T10:30:01.376Z,16.40
2017-12-04T10:31:01.304Z,16.90
2017-12-04T10:32:01.241Z,16.20
2017-12-04T10:33:01.180Z,16.50
2017-12-04T10:34:01.134Z,17.00
2017-12-04T10:35:01.052Z,16.40
2017-12-04T10:36:00.993Z,16.40
2017-12-04T10:37:00.930Z,17.10
2017-12-04T10:38:00.868Z,17.00
2017-12-04T10:39:00.803Z,16.50
2017-12-04T10:40:00.744Z,16.40
2017-12-04T10:41:00.679Z,15.90
2017-12-04T10:42:00.617Z,17.20
2017-12-04T10:43:00.595Z,16.50
2017-12-04T10:44:00.494Z,17.00
2017-12-04T10:45:00.428Z,16.00
2017-12-04T10:46:00.377Z,15.80
2017-12-04T10:47:00.303Z,18.00
2017-12-04T10:48:00.238Z,16.40
2017-12-04T10:49:00.185Z,15.60
2017-12-04T10:50:00.117Z,16.20
2017-12-04T10:51:00.049Z,16.40
2017-12-04T10:51:59.992Z,16.60
2017-12-04T10:52:59.934Z,15.90
2017-12-04T10:53:59.874Z,16.30
2017-12-04T10:54:59.808Z,16.60
2017-12-04T10:55:59.746Z,16.80
2017-12-04T10:56:59.684Z,15.50
2017-12-04T10:57:59.674Z,15.80
2017-12-04T10:58:59.560Z,16.40
2017-12-04T10:59:59.501Z,16.40
2017-12-04T11:00:59.433Z,15.50
2017-12-04T11:01:59.389Z,15.00
2017-12-04T11:02:59.316Z,15.80
2017-12-04T11:03:59.248Z,16.00
2017-12-04T11:04:59.186Z,15.00
2017-12-04T11:05:59.119Z,16.20
2017-12-04T11:06:59.062Z,15.70
2017-12-04T11:07:59.000Z,15.70
2017-12-04T11:08:58.936Z,16.50
2017-12-04T11:09:58.876Z,16.40
2017-12-04T11:10:58.807Z,15.70
2017-12-04T11:11:58.748Z,15.20
2017-12-04T11:12:58.686Z,15.20
2017-12-04T11:13:58.632Z,14.80
2017-12-04T11:14:58.565Z,14.80
2017-12-04T11:15:58.490Z,16.10
2017-12-04T11:16:58.468Z,15.20
2017-12-04T11:17:58.378Z,15.20
2017-12-04T11:18:58.302Z,16.00
2017-12-04T11:19:58.255Z,15.70
2017-12-04T11:20:58.196Z,15.90
2017-12-04T11:21:58.116Z,15.60
2017-12-04T11:22:58.066Z,15.60
2017-12-04T11:23:58.005Z,15.40
2017-12-04T11:24:57.939Z,15.30
2017-12-04T11:25:57.878Z,14.70
2017-12-04T11:26:57.815Z,14.70
2017-12-04T11:27:57.756Z,15.80
2017-12-04T11:28:57.698Z,15.40
2017-12-04T11:29:57.634Z,15.70
2017-12-04T11:30:57.582Z,15.80
2017-12-04T11:31:57.540Z,15.30
2017-12-04T11:32:57.452Z,16.00
2017-12-04T11:33:57.510Z,16.40
2017-12-04T11:34:57.324Z,14.80
2017-12-04T11:35:57.252Z,15.30
2017-12-04T11:36:57.189Z,16.30
2017-12-04T11:37:57.138Z,15.40
2017-12-04T11:38:57.071Z,15.00
2017-12-04T11:39:57.014Z,15.10
2017-12-04T11:40:56.992Z,15.70
2017-12-04T11:41:56.894Z,16.00
2017-12-04T11:42:56.817Z,15.80
2017-12-04T11:43:56.795Z,15.00
2017-12-04T11:44:56.697Z,15.70
2017-12-04T11:45:56.639Z,15.30
2017-12-04T11:46:56.568Z,15.50
2017-12-04T11:47:56.520Z,16.20
2017-12-04T11:48:56.440Z,15.90
2017-12-04T11:49:56.375Z,15.50
2017-12-04T11:50:56.317Z,15.70
2017-12-04T11:51:56.261Z,15.50
2017-12-04T11:52:56.196Z,15.50
2017-12-04T11:53:56.150Z,14.90
2017-12-04T11:54:56.083Z,15.70
2017-12-04T11:55:56.008Z,15.40
2017-12-04T11:56:55.954Z,15.20
2017-12-04T11:57:55.887Z,15.10
2017-12-04T11:58:55.827Z,15.10
2017-12-04T11:59:55.773Z,16.80
2017-12-04T12:00:55.713Z,15.50
2017-12-04T12:01:55.661Z,15.50
2017-12-04T12:02:55.649Z,15.30
2017-12-04T12:03:55.520Z,16.00
2017-12-04T12:04:55.453Z,14.90
2017-12-04T12:05:55.402Z,15.00
2017-12-04T12:06:55.363Z,15.60
2017-12-04T12:07:55.271Z,15.70
2017-12-04T12:08:55.217Z,15.70
2017-12-04T12:09:55.154Z,15.80
2017-12-04T12:10:55.084Z,15.70
2017-12-04T12:11:55.053Z,15.60
2017-12-04T12:12:54.953Z,15.90
2017-12-04T12:13:54.899Z,15.00
2017-12-04T12:14:54.908Z,16.70
2017-12-04T12:15:54.767Z,16.70
2017-12-04T12:16:54.717Z,16.20
2017-12-04T12:17:54.648Z,15.90
2017-12-04T12:18:54.631Z,16.90
2017-12-04T12:19:54.532Z,16.40
2017-12-04T12:20:54.464Z,16.60
2017-12-04T12:21:54.408Z,17.10
2017-12-04T12:22:54.340Z,16.40
2017-12-04T12:23:54.276Z,16.30
2017-12-04T12:24:54.218Z,16.50
2017-12-04T12:25:54.163Z,16.50
2017-12-04T12:26:54.093Z,17.00
2017-12-04T12:27:54.045Z,16.70
2017-12-04T12:28:53.975Z,17.50
2017-12-04T12:29:53.921Z,17.80
2017-12-04T12:30:53.851Z,18.30
2017-12-04T12:31:53.782Z,17.90
2017-12-04T12:32:53.749Z,18.30
2017-12-04T12:33:53.660Z,18.60
2017-12-04T12:34:53.607Z,18.30
2017-12-04T12:35:53.533Z,19.00
2017-12-04T12:36:53.474Z,20.30
2017-12-04T12:37:53.409Z,18.40
2017-12-04T12:38:53.349Z,18.10
2017-12-04T12:39:53.280Z,18.10
2017-12-04T12:40:53.228Z,17.80
2017-12-04T12:41:53.194Z,16.60
2017-12-04T12:42:53.097Z,17.20
2017-12-04T12:43:53.039Z,17.50
2017-12-04T12:44:52.977Z,17.30
2017-12-04T12:45:52.921Z,17.80
2017-12-04T12:46:52.871Z,17.10
2017-12-04T12:47:52.795Z,18.20
2017-12-04T12:48:52.742Z,18.20
2017-12-04T12:49:52.659Z,17.70
2017-12-04T12:50:52.605Z,17.50
2017-12-04T12:51:52.547Z,17.50